Aviation Digital Data Service (ADDS)

Output produced by METARs form (1638 UTC 23 September 2020)
found at http://aviationweather.gov/metar/data/
 
KHUM 231547Z 14008G12KT 7SM BKN026 OVC038 25/24 A2989
KHUM 231123Z 2312/2412 11009KT P6SM VCSH BKN035 
     FM231800 14012KT P6SM VCTS BKN020CB 
     FM232100 16011KT P6SM VCTS BKN030CB 
     FM240000 15008KT P6SM VCSH FEW030 SCT060 
     FM240600 18009KT P6SM SCT030